Terminal Aerodrome Forecast
Issued by NWS Wilmington, OH

Current Version | Previous Version | Graphics & Text | Print | Product List | Glossary On
Versions: 1 2 3 4 5 6 7 8 9 10 11 12 13 14 15 16 17 18 19 20 21 22 23
000
FTUS41 KILN 180700 AAA
TAFILN
TAF AMD
KILN 180736Z 1808/1906 09004KT 3SM BR OVC025
      TEMPO 1808/1809 2SM BR
     FM181000 07004KT 2SM BR OVC015
      TEMPO 1810/1812 1SM BR
     FM181200 07004KT 1SM BR OVC007
     FM181400 06005KT 4SM HZ VCSH OVC015
     FM181700 07005KT 6SM HZ OVC025
     FM181800 07005KT 6SM HZ VCSH BKN035
     FM182100 03005KT P6SM BKN100
     FM190500 VRB03KT P6SM BKN250=

USA.gov is the U.S. government's official web portal to all federal, state and local government web resources and services.